Krakow International Airport

Airport
ICAO code: 
EPKK
IATA Code: 
KRK
Summary
ICAO Region: 
EUR
Territory: 
Location: 
Balice, Lesser Poland
Serving: 
Krakow
Elevation: 
791 ft
Coordinates: 
Aerial View: 
50° 4' 40" N, 19° 47' 5" E
Metar
Observation
EPKK 010400Z 26014KT 9999 FEW019 BKN022 02/M01 Q1003
Station
Krakow
Date/Time
2021-12-01 04:00:00
Wind direction
260°
Wind speed
14 kts
Lowest cloud amount
few clouds
Temperature
2°C
Dew point
-1°C
Humidity
80%
QNH
1003 hPa
Weather condition
n/a

International airport serving Krakow, Poland.

Climatology

Temperate Marine climate/Oceanic climate (Köppen climate classification Cfb) - Moderately cool summer and comparatively warm winter with a temperature range of only 14°C.

Krakow is one of the easternmost localities in Europe to have an oceanic climate. Krakow lies near the Tatra Mountains, and there is often a Föhn wind, when the temperature rises rapidly, and even in winter reaches to 20°C.

Runways

Designator Length Width Surface Rops
7/25 2550 60 CON Yes/Yes
Airport map: 
Aerial View: 

SKYbrary Partners:

Safety knowledge contributed by: